sensor_id;sensor_type;location;lat;lon;timestamp;P1;durP1;ratioP1;P2;durP2;ratioP2
5904;SDS011;2978;42.012;24.880;2023-06-22T00:00:50;6.47;;;5.77;;
5904;SDS011;2978;42.012;24.880;2023-06-22T00:03:19;12.03;;;6.33;;
5904;SDS011;2978;42.012;24.880;2023-06-22T00:05:46;7.97;;;5.90;;
5904;SDS011;2978;42.012;24.880;2023-06-22T00:08:13;10.07;;;5.50;;
5904;SDS011;2978;42.012;24.880;2023-06-22T00:10:38;7.67;;;5.30;;
5904;SDS011;2978;42.012;24.880;2023-06-22T00:13:05;7.10;;;5.70;;
5904;SDS011;2978;42.012;24.880;2023-06-22T00:15:32;7.77;;;5.73;;
5904;SDS011;2978;42.012;24.880;2023-06-22T00:17:57;8.60;;;6.70;;
5904;SDS011;2978;42.012;24.880;2023-06-22T00:20:23;9.70;;;6.33;;
5904;SDS011;2978;42.012;24.880;2023-06-22T00:22:53;8.33;;;6.00;;
5904;SDS011;2978;42.012;24.880;2023-06-22T00:25:19;6.33;;;5.73;;
5904;SDS011;2978;42.012;24.880;2023-06-22T00:27:44;6.57;;;5.80;;
5904;SDS011;2978;42.012;24.880;2023-06-22T00:30:10;10.03;;;6.13;;
5904;SDS011;2978;42.012;24.880;2023-06-22T00:32:35;7.47;;;6.47;;
5904;SDS011;2978;42.012;24.880;2023-06-22T00:35:01;9.00;;;6.30;;
5904;SDS011;2978;42.012;24.880;2023-06-22T00:37:26;11.00;;;5.80;;
5904;SDS011;2978;42.012;24.880;2023-06-22T00:39:54;6.87;;;6.17;;
5904;SDS011;2978;42.012;24.880;2023-06-22T00:42:20;7.43;;;5.93;;
5904;SDS011;2978;42.012;24.880;2023-06-22T00:44:46;7.90;;;5.63;;
5904;SDS011;2978;42.012;24.880;2023-06-22T00:47:13;6.00;;;5.40;;
5904;SDS011;2978;42.012;24.880;2023-06-22T00:49:41;6.20;;;5.40;;
5904;SDS011;2978;42.012;24.880;2023-06-22T00:52:07;6.73;;;6.03;;
5904;SDS011;2978;42.012;24.880;2023-06-22T00:54:37;8.40;;;5.60;;
5904;SDS011;2978;42.012;24.880;2023-06-22T00:57:02;6.63;;;5.53;;
5904;SDS011;2978;42.012;24.880;2023-06-22T00:59:28;8.00;;;6.43;;
5904;SDS011;2978;42.012;24.880;2023-06-22T01:01:54;6.50;;;5.80;;
5904;SDS011;2978;42.012;24.880;2023-06-22T01:04:20;12.70;;;6.97;;
5904;SDS011;2978;42.012;24.880;2023-06-22T01:07:02;7.43;;;6.17;;
5904;SDS011;2978;42.012;24.880;2023-06-22T01:12:38;6.73;;;6.03;;
5904;SDS011;2978;42.012;24.880;2023-06-22T01:15:10;6.67;;;5.97;;
5904;SDS011;2978;42.012;24.880;2023-06-22T01:17:39;6.87;;;6.17;;
5904;SDS011;2978;42.012;24.880;2023-06-22T01:20:08;7.73;;;5.83;;
5904;SDS011;2978;42.012;24.880;2023-06-22T01:22:49;7.87;;;6.57;;
5904;SDS011;2978;42.012;24.880;2023-06-22T01:25:21;8.20;;;6.87;;
5904;SDS011;2978;42.012;24.880;2023-06-22T01:31:06;7.00;;;6.30;;
5904;SDS011;2978;42.012;24.880;2023-06-22T01:33:34;6.83;;;5.73;;
5904;SDS011;2978;42.012;24.880;2023-06-22T01:36:02;11.50;;;6.07;;
5904;SDS011;2978;42.012;24.880;2023-06-22T01:38:29;7.17;;;5.67;;
5904;SDS011;2978;42.012;24.880;2023-06-22T01:40:57;11.87;;;7.03;;
5904;SDS011;2978;42.012;24.880;2023-06-22T01:43:24;6.60;;;5.97;;
5904;SDS011;2978;42.012;24.880;2023-06-22T01:45:51;9.53;;;6.37;;
5904;SDS011;2978;42.012;24.880;2023-06-22T01:48:17;7.43;;;5.57;;
5904;SDS011;2978;42.012;24.880;2023-06-22T01:50:44;6.83;;;5.07;;
5904;SDS011;2978;42.012;24.880;2023-06-22T01:53:10;9.43;;;5.67;;
5904;SDS011;2978;42.012;24.880;2023-06-22T01:55:35;12.93;;;5.87;;
5904;SDS011;2978;42.012;24.880;2023-06-22T01:58:01;13.07;;;7.17;;
5904;SDS011;2978;42.012;24.880;2023-06-22T02:00:26;6.47;;;5.80;;
5904;SDS011;2978;42.012;24.880;2023-06-22T02:02:58;14.67;;;5.90;;
5904;SDS011;2978;42.012;24.880;2023-06-22T02:05:29;7.00;;;6.30;;
5904;SDS011;2978;42.012;24.880;2023-06-22T02:08:21;8.40;;;5.60;;
5904;SDS011;2978;42.012;24.880;2023-06-22T02:10:49;8.00;;;6.23;;
5904;SDS011;2978;42.012;24.880;2023-06-22T02:13:17;7.83;;;6.40;;
5904;SDS011;2978;42.012;24.880;2023-06-22T02:15:43;8.33;;;6.40;;
5904;SDS011;2978;42.012;24.880;2023-06-22T02:18:10;9.30;;;6.07;;
5904;SDS011;2978;42.012;24.880;2023-06-22T02:20:39;7.77;;;6.37;;
5904;SDS011;2978;42.012;24.880;2023-06-22T02:23:05;8.33;;;6.13;;
5904;SDS011;2978;42.012;24.880;2023-06-22T02:25:32;7.17;;;5.77;;
5904;SDS011;2978;42.012;24.880;2023-06-22T02:27:58;12.03;;;6.07;;
5904;SDS011;2978;42.012;24.880;2023-06-22T02:30:23;7.17;;;6.40;;
5904;SDS011;2978;42.012;24.880;2023-06-22T02:32:48;11.63;;;6.43;;
5904;SDS011;2978;42.012;24.880;2023-06-22T02:35:14;7.57;;;6.67;;
5904;SDS011;2978;42.012;24.880;2023-06-22T02:37:40;7.53;;;6.27;;
5904;SDS011;2978;42.012;24.880;2023-06-22T02:40:09;15.00;;;6.30;;
5904;SDS011;2978;42.012;24.880;2023-06-22T02:42:36;9.93;;;6.53;;
5904;SDS011;2978;42.012;24.880;2023-06-22T02:45:02;7.60;;;6.30;;
5904;SDS011;2978;42.012;24.880;2023-06-22T02:47:28;12.20;;;7.17;;
5904;SDS011;2978;42.012;24.880;2023-06-22T02:49:54;7.63;;;6.27;;
5904;SDS011;2978;42.012;24.880;2023-06-22T02:52:20;7.20;;;6.03;;
5904;SDS011;2978;42.012;24.880;2023-06-22T02:54:45;7.10;;;6.40;;
5904;SDS011;2978;42.012;24.880;2023-06-22T02:57:11;9.27;;;6.27;;
5904;SDS011;2978;42.012;24.880;2023-06-22T02:59:38;11.10;;;6.23;;
5904;SDS011;2978;42.012;24.880;2023-06-22T03:02:06;7.53;;;6.00;;
5904;SDS011;2978;42.012;24.880;2023-06-22T03:04:31;10.50;;;6.10;;
5904;SDS011;2978;42.012;24.880;2023-06-22T03:06:57;8.60;;;6.50;;
5904;SDS011;2978;42.012;24.880;2023-06-22T03:09:26;7.20;;;5.97;;
5904;SDS011;2978;42.012;24.880;2023-06-22T03:11:53;9.83;;;6.23;;
5904;SDS011;2978;42.012;24.880;2023-06-22T03:14:18;10.93;;;6.57;;
5904;SDS011;2978;42.012;24.880;2023-06-22T03:16:44;13.93;;;6.57;;
5904;SDS011;2978;42.012;24.880;2023-06-22T03:19:09;7.67;;;6.30;;
5904;SDS011;2978;42.012;24.880;2023-06-22T03:21:35;10.57;;;5.93;;
5904;SDS011;2978;42.012;24.880;2023-06-22T03:24:03;11.43;;;6.20;;
5904;SDS011;2978;42.012;24.880;2023-06-22T03:26:29;8.63;;;6.03;;
5904;SDS011;2978;42.012;24.880;2023-06-22T03:28:55;11.67;;;6.93;;
5904;SDS011;2978;42.012;24.880;2023-06-22T03:31:20;6.50;;;5.70;;
5904;SDS011;2978;42.012;24.880;2023-06-22T03:33:47;7.23;;;6.50;;
5904;SDS011;2978;42.012;24.880;2023-06-22T03:36:14;6.93;;;6.23;;
5904;SDS011;2978;42.012;24.880;2023-06-22T03:38:43;10.00;;;6.30;;
5904;SDS011;2978;42.012;24.880;2023-06-22T03:41:09;13.73;;;5.63;;
5904;SDS011;2978;42.012;24.880;2023-06-22T03:43:35;8.43;;;6.00;;
5904;SDS011;2978;42.012;24.880;2023-06-22T03:46:00;14.87;;;7.40;;
5904;SDS011;2978;42.012;24.880;2023-06-22T03:48:26;8.30;;;6.30;;
5904;SDS011;2978;42.012;24.880;2023-06-22T03:50:51;9.07;;;6.60;;
5904;SDS011;2978;42.012;24.880;2023-06-22T03:53:16;7.67;;;6.83;;
5904;SDS011;2978;42.012;24.880;2023-06-22T03:55:48;11.53;;;6.07;;
5904;SDS011;2978;42.012;24.880;2023-06-22T03:58:15;9.47;;;6.10;;
5904;SDS011;2978;42.012;24.880;2023-06-22T04:00:43;13.37;;;6.43;;
5904;SDS011;2978;42.012;24.880;2023-06-22T04:03:10;11.47;;;6.67;;
5904;SDS011;2978;42.012;24.880;2023-06-22T04:05:37;8.60;;;6.43;;
5904;SDS011;2978;42.012;24.880;2023-06-22T04:08:03;7.83;;;5.90;;
5904;SDS011;2978;42.012;24.880;2023-06-22T04:10:29;8.40;;;6.13;;
5904;SDS011;2978;42.012;24.880;2023-06-22T04:12:55;7.73;;;6.57;;
5904;SDS011;2978;42.012;24.880;2023-06-22T04:15:21;8.63;;;5.97;;
5904;SDS011;2978;42.012;24.880;2023-06-22T04:17:46;11.73;;;6.00;;
5904;SDS011;2978;42.012;24.880;2023-06-22T04:20:11;15.23;;;6.70;;
5904;SDS011;2978;42.012;24.880;2023-06-22T04:22:37;6.73;;;5.90;;
5904;SDS011;2978;42.012;24.880;2023-06-22T04:25:02;8.10;;;6.60;;
5904;SDS011;2978;42.012;24.880;2023-06-22T04:27:28;8.43;;;5.70;;
5904;SDS011;2978;42.012;24.880;2023-06-22T04:29:53;6.70;;;5.47;;
5904;SDS011;2978;42.012;24.880;2023-06-22T04:32:19;11.10;;;5.93;;
5904;SDS011;2978;42.012;24.880;2023-06-22T04:34:44;8.70;;;5.60;;
5904;SDS011;2978;42.012;24.880;2023-06-22T04:37:09;8.40;;;6.20;;
5904;SDS011;2978;42.012;24.880;2023-06-22T04:39:40;13.20;;;6.60;;
5904;SDS011;2978;42.012;24.880;2023-06-22T04:42:06;7.23;;;5.67;;
5904;SDS011;2978;42.012;24.880;2023-06-22T04:44:31;11.10;;;5.77;;
5904;SDS011;2978;42.012;24.880;2023-06-22T04:46:57;8.87;;;5.73;;
5904;SDS011;2978;42.012;24.880;2023-06-22T04:49:25;16.87;;;6.20;;
5904;SDS011;2978;42.012;24.880;2023-06-22T04:51:57;7.60;;;6.00;;
5904;SDS011;2978;42.012;24.880;2023-06-22T04:54:23;7.57;;;5.67;;
5904;SDS011;2978;42.012;24.880;2023-06-22T04:56:49;10.50;;;5.80;;
5904;SDS011;2978;42.012;24.880;2023-06-22T04:59:39;12.73;;;5.80;;
5904;SDS011;2978;42.012;24.880;2023-06-22T05:02:06;9.23;;;5.63;;
5904;SDS011;2978;42.012;24.880;2023-06-22T05:04:32;10.07;;;5.30;;
5904;SDS011;2978;42.012;24.880;2023-06-22T05:06:58;6.53;;;5.23;;
5904;SDS011;2978;42.012;24.880;2023-06-22T05:09:28;11.50;;;6.70;;
5904;SDS011;2978;42.012;24.880;2023-06-22T05:11:54;8.40;;;5.80;;
5904;SDS011;2978;42.012;24.880;2023-06-22T05:14:21;7.63;;;5.57;;
5904;SDS011;2978;42.012;24.880;2023-06-22T05:16:48;7.47;;;5.30;;
5904;SDS011;2978;42.012;24.880;2023-06-22T05:19:14;6.80;;;5.40;;
5904;SDS011;2978;42.012;24.880;2023-06-22T05:21:39;7.60;;;5.90;;
5904;SDS011;2978;42.012;24.880;2023-06-22T05:24:04;8.07;;;4.90;;
5904;SDS011;2978;42.012;24.880;2023-06-22T05:26:30;8.50;;;5.63;;
5904;SDS011;2978;42.012;24.880;2023-06-22T05:28:57;7.97;;;5.53;;
5904;SDS011;2978;42.012;24.880;2023-06-22T05:31:24;6.40;;;5.80;;
5904;SDS011;2978;42.012;24.880;2023-06-22T05:33:51;5.50;;;4.53;;
5904;SDS011;2978;42.012;24.880;2023-06-22T05:36:17;9.67;;;5.83;;
5904;SDS011;2978;42.012;24.880;2023-06-22T05:38:45;10.83;;;5.77;;
5904;SDS011;2978;42.012;24.880;2023-06-22T05:41:10;8.70;;;5.93;;
5904;SDS011;2978;42.012;24.880;2023-06-22T05:43:36;7.23;;;5.37;;
5904;SDS011;2978;42.012;24.880;2023-06-22T05:46:01;6.33;;;5.70;;
5904;SDS011;2978;42.012;24.880;2023-06-22T05:48:27;5.50;;;4.80;;
5904;SDS011;2978;42.012;24.880;2023-06-22T05:50:53;13.90;;;6.47;;
5904;SDS011;2978;42.012;24.880;2023-06-22T05:53:19;11.23;;;5.30;;
5904;SDS011;2978;42.012;24.880;2023-06-22T05:55:44;7.13;;;5.47;;
5904;SDS011;2978;42.012;24.880;2023-06-22T05:58:10;9.00;;;6.40;;
5904;SDS011;2978;42.012;24.880;2023-06-22T06:00:36;8.40;;;6.17;;
5904;SDS011;2978;42.012;24.880;2023-06-22T06:03:01;6.33;;;5.30;;
5904;SDS011;2978;42.012;24.880;2023-06-22T06:05:28;9.00;;;6.10;;
5904;SDS011;2978;42.012;24.880;2023-06-22T06:07:55;18.40;;;6.93;;
5904;SDS011;2978;42.012;24.880;2023-06-22T06:10:20;37.13;;;9.67;;
5904;SDS011;2978;42.012;24.880;2023-06-22T06:12:46;45.97;;;12.27;;
5904;SDS011;2978;42.012;24.880;2023-06-22T06:15:11;37.57;;;12.13;;
5904;SDS011;2978;42.012;24.880;2023-06-22T06:17:44;24.30;;;10.10;;
5904;SDS011;2978;42.012;24.880;2023-06-22T06:20:11;25.40;;;10.17;;
5904;SDS011;2978;42.012;24.880;2023-06-22T06:22:37;42.10;;;11.87;;
5904;SDS011;2978;42.012;24.880;2023-06-22T06:25:02;36.07;;;12.40;;
5904;SDS011;2978;42.012;24.880;2023-06-22T06:27:28;30.33;;;13.17;;
5904;SDS011;2978;42.012;24.880;2023-06-22T06:29:54;29.53;;;11.37;;
5904;SDS011;2978;42.012;24.880;2023-06-22T06:32:19;20.70;;;11.50;;
5904;SDS011;2978;42.012;24.880;2023-06-22T06:34:45;13.67;;;10.57;;
5904;SDS011;2978;42.012;24.880;2023-06-22T06:37:10;15.70;;;10.33;;
5904;SDS011;2978;42.012;24.880;2023-06-22T06:39:35;23.53;;;10.23;;
5904;SDS011;2978;42.012;24.880;2023-06-22T06:42:01;13.87;;;9.37;;
5904;SDS011;2978;42.012;24.880;2023-06-22T06:44:27;24.67;;;10.33;;
5904;SDS011;2978;42.012;24.880;2023-06-22T06:46:52;23.40;;;11.83;;
5904;SDS011;2978;42.012;24.880;2023-06-22T06:49:19;15.07;;;10.03;;
5904;SDS011;2978;42.012;24.880;2023-06-22T06:51:44;12.57;;;9.87;;
5904;SDS011;2978;42.012;24.880;2023-06-22T06:54:10;20.27;;;10.30;;
5904;SDS011;2978;42.012;24.880;2023-06-22T06:56:35;12.87;;;9.00;;
5904;SDS011;2978;42.012;24.880;2023-06-22T06:59:01;21.93;;;9.67;;
5904;SDS011;2978;42.012;24.880;2023-06-22T07:01:26;23.13;;;10.50;;
5904;SDS011;2978;42.012;24.880;2023-06-22T07:03:52;20.33;;;10.30;;
5904;SDS011;2978;42.012;24.880;2023-06-22T07:06:18;20.30;;;9.73;;
5904;SDS011;2978;42.012;24.880;2023-06-22T07:08:44;27.60;;;10.50;;
5904;SDS011;2978;42.012;24.880;2023-06-22T07:11:10;22.47;;;9.93;;
5904;SDS011;2978;42.012;24.880;2023-06-22T07:13:36;17.10;;;9.20;;
5904;SDS011;2978;42.012;24.880;2023-06-22T07:16:01;12.60;;;10.10;;
5904;SDS011;2978;42.012;24.880;2023-06-22T07:18:26;18.20;;;10.27;;
5904;SDS011;2978;42.012;24.880;2023-06-22T07:20:52;19.30;;;9.63;;
5904;SDS011;2978;42.012;24.880;2023-06-22T07:23:18;25.13;;;9.93;;
5904;SDS011;2978;42.012;24.880;2023-06-22T07:25:43;14.80;;;10.03;;
5904;SDS011;2978;42.012;24.880;2023-06-22T07:28:09;19.17;;;10.03;;
5904;SDS011;2978;42.012;24.880;2023-06-22T07:30:34;12.60;;;8.53;;
5904;SDS011;2978;42.012;24.880;2023-06-22T07:33:00;22.37;;;8.23;;
5904;SDS011;2978;42.012;24.880;2023-06-22T07:35:28;11.40;;;8.57;;
5904;SDS011;2978;42.012;24.880;2023-06-22T07:37:54;15.53;;;9.07;;
5904;SDS011;2978;42.012;24.880;2023-06-22T07:40:19;12.93;;;8.17;;
5904;SDS011;2978;42.012;24.880;2023-06-22T07:42:44;12.37;;;9.00;;
5904;SDS011;2978;42.012;24.880;2023-06-22T07:45:13;11.57;;;8.23;;
5904;SDS011;2978;42.012;24.880;2023-06-22T07:47:39;20.83;;;8.43;;
5904;SDS011;2978;42.012;24.880;2023-06-22T07:50:04;20.33;;;8.83;;
5904;SDS011;2978;42.012;24.880;2023-06-22T07:52:31;10.33;;;8.37;;
5904;SDS011;2978;42.012;24.880;2023-06-22T07:54:56;11.53;;;7.40;;
5904;SDS011;2978;42.012;24.880;2023-06-22T07:57:22;15.70;;;7.60;;
5904;SDS011;2978;42.012;24.880;2023-06-22T07:59:47;11.17;;;7.63;;
5904;SDS011;2978;42.012;24.880;2023-06-22T08:02:13;10.33;;;7.60;;
5904;SDS011;2978;42.012;24.880;2023-06-22T08:08:00;20.50;;;8.10;;
5904;SDS011;2978;42.012;24.880;2023-06-22T08:10:26;16.33;;;7.60;;
5904;SDS011;2978;42.012;24.880;2023-06-22T08:12:51;8.03;;;6.40;;
5904;SDS011;2978;42.012;24.880;2023-06-22T08:15:17;8.63;;;6.50;;
5904;SDS011;2978;42.012;24.880;2023-06-22T08:17:43;11.00;;;6.13;;
5904;SDS011;2978;42.012;24.880;2023-06-22T08:20:09;11.93;;;6.33;;
5904;SDS011;2978;42.012;24.880;2023-06-22T08:22:38;9.30;;;6.00;;
5904;SDS011;2978;42.012;24.880;2023-06-22T08:25:07;9.10;;;6.00;;
5904;SDS011;2978;42.012;24.880;2023-06-22T08:27:33;8.47;;;6.10;;
5904;SDS011;2978;42.012;24.880;2023-06-22T08:29:59;9.10;;;5.43;;
5904;SDS011;2978;42.012;24.880;2023-06-22T08:32:26;9.50;;;6.23;;
5904;SDS011;2978;42.012;24.880;2023-06-22T08:34:55;9.23;;;5.70;;
5904;SDS011;2978;42.012;24.880;2023-06-22T08:37:22;17.23;;;6.70;;
5904;SDS011;2978;42.012;24.880;2023-06-22T08:39:59;7.93;;;5.50;;
5904;SDS011;2978;42.012;24.880;2023-06-22T08:42:26;5.97;;;5.37;;
5904;SDS011;2978;42.012;24.880;2023-06-22T08:44:51;10.73;;;6.27;;
5904;SDS011;2978;42.012;24.880;2023-06-22T08:47:18;6.60;;;5.30;;
5904;SDS011;2978;42.012;24.880;2023-06-22T08:49:43;10.40;;;6.23;;
5904;SDS011;2978;42.012;24.880;2023-06-22T08:52:09;13.87;;;5.80;;
5904;SDS011;2978;42.012;24.880;2023-06-22T08:54:34;12.40;;;5.30;;
5904;SDS011;2978;42.012;24.880;2023-06-22T08:57:00;6.97;;;5.10;;
5904;SDS011;2978;42.012;24.880;2023-06-22T08:59:26;13.63;;;5.73;;
5904;SDS011;2978;42.012;24.880;2023-06-22T09:01:52;7.30;;;5.50;;
5904;SDS011;2978;42.012;24.880;2023-06-22T09:04:17;10.20;;;5.50;;
5904;SDS011;2978;42.012;24.880;2023-06-22T09:06:43;8.20;;;5.50;;
5904;SDS011;2978;42.012;24.880;2023-06-22T09:09:10;9.53;;;5.20;;
5904;SDS011;2978;42.012;24.880;2023-06-22T09:11:37;11.90;;;5.90;;
5904;SDS011;2978;42.012;24.880;2023-06-22T09:14:02;7.00;;;4.53;;
5904;SDS011;2978;42.012;24.880;2023-06-22T09:16:28;22.63;;;5.60;;
5904;SDS011;2978;42.012;24.880;2023-06-22T09:18:54;9.83;;;5.20;;
5904;SDS011;2978;42.012;24.880;2023-06-22T09:21:19;14.93;;;5.83;;
5904;SDS011;2978;42.012;24.880;2023-06-22T09:23:45;7.20;;;5.70;;
5904;SDS011;2978;42.012;24.880;2023-06-22T09:26:15;11.83;;;8.90;;
5904;SDS011;2978;42.012;24.880;2023-06-22T09:28:40;8.83;;;5.77;;
5904;SDS011;2978;42.012;24.880;2023-06-22T09:31:06;6.50;;;4.93;;
5904;SDS011;2978;42.012;24.880;2023-06-22T09:33:32;12.60;;;5.37;;
5904;SDS011;2978;42.012;24.880;2023-06-22T09:35:57;8.27;;;5.90;;
5904;SDS011;2978;42.012;24.880;2023-06-22T09:38:23;5.30;;;4.80;;
5904;SDS011;2978;42.012;24.880;2023-06-22T09:40:48;9.93;;;6.40;;
5904;SDS011;2978;42.012;24.880;2023-06-22T09:43:14;8.73;;;5.00;;
5904;SDS011;2978;42.012;24.880;2023-06-22T09:45:39;11.63;;;5.00;;
5904;SDS011;2978;42.012;24.880;2023-06-22T09:48:05;7.57;;;5.20;;
5904;SDS011;2978;42.012;24.880;2023-06-22T09:50:30;9.90;;;5.17;;
5904;SDS011;2978;42.012;24.880;2023-06-22T09:52:56;8.57;;;5.30;;
5904;SDS011;2978;42.012;24.880;2023-06-22T09:55:21;15.23;;;5.53;;
5904;SDS011;2978;42.012;24.880;2023-06-22T09:57:47;6.40;;;5.40;;
5904;SDS011;2978;42.012;24.880;2023-06-22T10:00:13;11.70;;;5.40;;
5904;SDS011;2978;42.012;24.880;2023-06-22T10:02:43;11.70;;;5.63;;
5904;SDS011;2978;42.012;24.880;2023-06-22T10:05:08;12.23;;;5.30;;
5904;SDS011;2978;42.012;24.880;2023-06-22T10:07:34;6.60;;;4.50;;
5904;SDS011;2978;42.012;24.880;2023-06-22T10:09:59;8.17;;;5.40;;
5904;SDS011;2978;42.012;24.880;2023-06-22T10:12:26;7.17;;;4.73;;
5904;SDS011;2978;42.012;24.880;2023-06-22T10:14:52;7.30;;;5.43;;
5904;SDS011;2978;42.012;24.880;2023-06-22T10:17:18;7.73;;;4.67;;
5904;SDS011;2978;42.012;24.880;2023-06-22T10:19:43;6.00;;;5.07;;
5904;SDS011;2978;42.012;24.880;2023-06-22T10:22:09;6.67;;;5.03;;
5904;SDS011;2978;42.012;24.880;2023-06-22T10:24:34;5.57;;;4.90;;
5904;SDS011;2978;42.012;24.880;2023-06-22T10:27:00;8.87;;;5.60;;
5904;SDS011;2978;42.012;24.880;2023-06-22T10:29:25;4.90;;;4.23;;
5904;SDS011;2978;42.012;24.880;2023-06-22T10:31:51;5.90;;;5.10;;
5904;SDS011;2978;42.012;24.880;2023-06-22T10:34:16;10.80;;;5.73;;
5904;SDS011;2978;42.012;24.880;2023-06-22T10:36:41;10.90;;;5.40;;
5904;SDS011;2978;42.012;24.880;2023-06-22T10:49:24;8.43;;;5.40;;
5904;SDS011;2978;42.012;24.880;2023-06-22T10:51:49;7.20;;;5.10;;
5904;SDS011;2978;42.012;24.880;2023-06-22T10:54:17;6.80;;;5.30;;
5904;SDS011;2978;42.012;24.880;2023-06-22T10:56:44;7.43;;;5.47;;
5904;SDS011;2978;42.012;24.880;2023-06-22T10:59:09;8.10;;;5.27;;
5904;SDS011;2978;42.012;24.880;2023-06-22T11:01:35;12.03;;;5.27;;
5904;SDS011;2978;42.012;24.880;2023-06-22T11:04:01;6.53;;;5.20;;
5904;SDS011;2978;42.012;24.880;2023-06-22T11:06:27;10.77;;;5.10;;
5904;SDS011;2978;42.012;24.880;2023-06-22T11:08:52;7.77;;;5.73;;
5904;SDS011;2978;42.012;24.880;2023-06-22T11:11:18;7.10;;;4.87;;
5904;SDS011;2978;42.012;24.880;2023-06-22T11:13:43;6.70;;;4.60;;
5904;SDS011;2978;42.012;24.880;2023-06-22T11:16:10;8.87;;;5.43;;
5904;SDS011;2978;42.012;24.880;2023-06-22T11:18:36;9.63;;;4.93;;
5904;SDS011;2978;42.012;24.880;2023-06-22T11:21:01;10.13;;;5.17;;
5904;SDS011;2978;42.012;24.880;2023-06-22T11:23:26;7.30;;;6.00;;
5904;SDS011;2978;42.012;24.880;2023-06-22T11:25:53;11.83;;;5.50;;
5904;SDS011;2978;42.012;24.880;2023-06-22T11:28:19;8.60;;;4.90;;
5904;SDS011;2978;42.012;24.880;2023-06-22T11:30:44;9.57;;;5.80;;
5904;SDS011;2978;42.012;24.880;2023-06-22T11:33:10;17.43;;;5.87;;
5904;SDS011;2978;42.012;24.880;2023-06-22T11:35:35;9.40;;;6.20;;
5904;SDS011;2978;42.012;24.880;2023-06-22T11:38:00;9.17;;;6.17;;
5904;SDS011;2978;42.012;24.880;2023-06-22T11:40:28;11.33;;;4.93;;
5904;SDS011;2978;42.012;24.880;2023-06-22T11:42:53;8.67;;;5.20;;
5904;SDS011;2978;42.012;24.880;2023-06-22T11:45:19;8.13;;;5.43;;
5904;SDS011;2978;42.012;24.880;2023-06-22T11:51:17;6.00;;;5.40;;
5904;SDS011;2978;42.012;24.880;2023-06-22T11:53:42;7.27;;;6.00;;
5904;SDS011;2978;42.012;24.880;2023-06-22T11:56:08;8.20;;;5.20;;
5904;SDS011;2978;42.012;24.880;2023-06-22T11:58:33;11.03;;;5.37;;
5904;SDS011;2978;42.012;24.880;2023-06-22T12:00:58;6.93;;;6.20;;
5904;SDS011;2978;42.012;24.880;2023-06-22T12:03:24;8.37;;;5.50;;
5904;SDS011;2978;42.012;24.880;2023-06-22T12:05:50;6.87;;;5.60;;
5904;SDS011;2978;42.012;24.880;2023-06-22T12:08:17;8.43;;;6.63;;
5904;SDS011;2978;42.012;24.880;2023-06-22T12:10:42;6.70;;;5.27;;
5904;SDS011;2978;42.012;24.880;2023-06-22T12:13:08;9.37;;;5.30;;
5904;SDS011;2978;42.012;24.880;2023-06-22T12:15:33;9.73;;;5.53;;
5904;SDS011;2978;42.012;24.880;2023-06-22T12:17:59;8.80;;;5.60;;
5904;SDS011;2978;42.012;24.880;2023-06-22T12:20:26;7.03;;;5.80;;
5904;SDS011;2978;42.012;24.880;2023-06-22T12:22:51;8.77;;;6.63;;
5904;SDS011;2978;42.012;24.880;2023-06-22T12:25:17;6.43;;;5.33;;
5904;SDS011;2978;42.012;24.880;2023-06-22T12:34:26;6.90;;;5.23;;
5904;SDS011;2978;42.012;24.880;2023-06-22T12:36:51;8.10;;;6.03;;
5904;SDS011;2978;42.012;24.880;2023-06-22T12:39:19;9.57;;;6.07;;
5904;SDS011;2978;42.012;24.880;2023-06-22T12:41:45;5.30;;;4.80;;
5904;SDS011;2978;42.012;24.880;2023-06-22T12:44:10;9.67;;;5.30;;
5904;SDS011;2978;42.012;24.880;2023-06-22T12:46:36;8.67;;;5.30;;
5904;SDS011;2978;42.012;24.880;2023-06-22T12:49:03;5.80;;;5.17;;
5904;SDS011;2978;42.012;24.880;2023-06-22T12:51:29;5.70;;;4.83;;
5904;SDS011;2978;42.012;24.880;2023-06-22T12:53:55;6.97;;;5.30;;
5904;SDS011;2978;42.012;24.880;2023-06-22T12:56:21;5.73;;;4.70;;
5904;SDS011;2978;42.012;24.880;2023-06-22T12:58:47;8.23;;;5.60;;
5904;SDS011;2978;42.012;24.880;2023-06-22T13:01:12;7.20;;;5.20;;
5904;SDS011;2978;42.012;24.880;2023-06-22T13:03:38;7.80;;;5.53;;
5904;SDS011;2978;42.012;24.880;2023-06-22T13:06:03;8.47;;;5.23;;
5904;SDS011;2978;42.012;24.880;2023-06-22T13:08:29;8.53;;;6.17;;
5904;SDS011;2978;42.012;24.880;2023-06-22T13:10:55;8.27;;;5.10;;
5904;SDS011;2978;42.012;24.880;2023-06-22T13:13:23;8.23;;;5.03;;
5904;SDS011;2978;42.012;24.880;2023-06-22T13:15:52;8.40;;;5.83;;
5904;SDS011;2978;42.012;24.880;2023-06-22T13:18:17;8.27;;;4.83;;
5904;SDS011;2978;42.012;24.880;2023-06-22T13:20:43;11.93;;;5.40;;
5904;SDS011;2978;42.012;24.880;2023-06-22T13:23:10;14.00;;;6.57;;
5904;SDS011;2978;42.012;24.880;2023-06-22T13:25:36;7.97;;;6.83;;
5904;SDS011;2978;42.012;24.880;2023-06-22T13:28:01;16.93;;;6.50;;
5904;SDS011;2978;42.012;24.880;2023-06-22T13:30:27;8.20;;;6.10;;
5904;SDS011;2978;42.012;24.880;2023-06-22T13:32:52;8.60;;;5.90;;
5904;SDS011;2978;42.012;24.880;2023-06-22T13:35:17;10.27;;;5.60;;
5904;SDS011;2978;42.012;24.880;2023-06-22T13:37:43;7.50;;;6.47;;
5904;SDS011;2978;42.012;24.880;2023-06-22T13:40:09;7.40;;;6.60;;
5904;SDS011;2978;42.012;24.880;2023-06-22T13:42:34;9.53;;;6.77;;
5904;SDS011;2978;42.012;24.880;2023-06-22T13:45:00;7.10;;;6.37;;
5904;SDS011;2978;42.012;24.880;2023-06-22T13:47:26;8.40;;;6.33;;
5904;SDS011;2978;42.012;24.880;2023-06-22T13:49:51;8.80;;;5.90;;
5904;SDS011;2978;42.012;24.880;2023-06-22T13:52:17;9.83;;;6.73;;
5904;SDS011;2978;42.012;24.880;2023-06-22T13:54:42;8.50;;;6.20;;
5904;SDS011;2978;42.012;24.880;2023-06-22T13:57:08;9.07;;;6.27;;
5904;SDS011;2978;42.012;24.880;2023-06-22T13:59:33;13.40;;;6.90;;
5904;SDS011;2978;42.012;24.880;2023-06-22T14:02:01;11.07;;;6.70;;
5904;SDS011;2978;42.012;24.880;2023-06-22T14:04:27;10.63;;;6.70;;
5904;SDS011;2978;42.012;24.880;2023-06-22T14:06:53;7.67;;;6.53;;
5904;SDS011;2978;42.012;24.880;2023-06-22T14:09:19;10.63;;;6.87;;
5904;SDS011;2978;42.012;24.880;2023-06-22T14:11:44;9.13;;;6.97;;
5904;SDS011;2978;42.012;24.880;2023-06-22T14:14:10;16.53;;;7.80;;
5904;SDS011;2978;42.012;24.880;2023-06-22T14:16:35;10.93;;;7.07;;
5904;SDS011;2978;42.012;24.880;2023-06-22T14:19:00;13.10;;;7.10;;
5904;SDS011;2978;42.012;24.880;2023-06-22T14:21:26;11.63;;;6.70;;
5904;SDS011;2978;42.012;24.880;2023-06-22T14:26:51;16.07;;;9.80;;
5904;SDS011;2978;42.012;24.880;2023-06-22T14:29:16;15.40;;;7.60;;
5904;SDS011;2978;42.012;24.880;2023-06-22T14:31:44;8.67;;;6.97;;
5904;SDS011;2978;42.012;24.880;2023-06-22T14:34:11;10.23;;;6.80;;
5904;SDS011;2978;42.012;24.880;2023-06-22T14:36:36;13.90;;;6.87;;
5904;SDS011;2978;42.012;24.880;2023-06-22T14:39:01;8.00;;;6.80;;
5904;SDS011;2978;42.012;24.880;2023-06-22T14:41:27;12.50;;;7.03;;
5904;SDS011;2978;42.012;24.880;2023-06-22T14:43:52;8.27;;;6.63;;
5904;SDS011;2978;42.012;24.880;2023-06-22T14:46:18;9.20;;;7.20;;
5904;SDS011;2978;42.012;24.880;2023-06-22T14:48:44;11.73;;;7.60;;
5904;SDS011;2978;42.012;24.880;2023-06-22T14:51:10;11.10;;;6.80;;
5904;SDS011;2978;42.012;24.880;2023-06-22T14:53:36;13.03;;;7.30;;
5904;SDS011;2978;42.012;24.880;2023-06-22T14:56:02;8.23;;;7.30;;
5904;SDS011;2978;42.012;24.880;2023-06-22T14:58:28;11.70;;;7.50;;
5904;SDS011;2978;42.012;24.880;2023-06-22T15:00:58;11.17;;;8.60;;
5904;SDS011;2978;42.012;24.880;2023-06-22T15:03:24;20.77;;;8.13;;
5904;SDS011;2978;42.012;24.880;2023-06-22T15:05:52;12.30;;;7.20;;
5904;SDS011;2978;42.012;24.880;2023-06-22T15:08:18;11.60;;;7.77;;
5904;SDS011;2978;42.012;24.880;2023-06-22T15:10:44;10.70;;;6.43;;
5904;SDS011;2978;42.012;24.880;2023-06-22T15:13:10;12.83;;;7.17;;
5904;SDS011;2978;42.012;24.880;2023-06-22T15:15:35;7.87;;;7.07;;
5904;SDS011;2978;42.012;24.880;2023-06-22T15:18:01;10.20;;;7.33;;
5904;SDS011;2978;42.012;24.880;2023-06-22T15:20:27;10.50;;;7.47;;
5904;SDS011;2978;42.012;24.880;2023-06-22T15:22:52;12.87;;;8.60;;